sensor_id;sensor_type;location;lat;lon;timestamp;temperature;humidity
782;DHT22;374;52.568;13.402;2022-09-09T00:04:32;16.00;99.90
782;DHT22;374;52.568;13.402;2022-09-09T00:09:57;16.10;99.90
782;DHT22;374;52.568;13.402;2022-09-09T00:15:45;16.00;99.90
782;DHT22;374;52.568;13.402;2022-09-09T00:21:05;16.10;99.90
782;DHT22;374;52.568;13.402;2022-09-09T00:23:45;15.90;99.90
782;DHT22;374;52.568;13.402;2022-09-09T00:26:27;16.20;99.90
782;DHT22;374;52.568;13.402;2022-09-09T00:31:34;16.20;99.90
782;DHT22;374;52.568;13.402;2022-09-09T00:36:42;16.00;99.90
782;DHT22;374;52.568;13.402;2022-09-09T00:39:25;15.90;99.90
782;DHT22;374;52.568;13.402;2022-09-09T00:42:18;16.20;99.90
782;DHT22;374;52.568;13.402;2022-09-09T00:47:50;16.20;99.90
782;DHT22;374;52.568;13.402;2022-09-09T00:53:28;16.00;99.90
782;DHT22;374;52.568;13.402;2022-09-09T00:58:37;16.20;99.90
782;DHT22;374;52.568;13.402;2022-09-09T01:01:10;15.80;99.90
782;DHT22;374;52.568;13.402;2022-09-09T01:03:51;16.10;99.90
782;DHT22;374;52.568;13.402;2022-09-09T01:06:34;15.80;99.90
782;DHT22;374;52.568;13.402;2022-09-09T01:09:56;15.80;99.90
782;DHT22;374;52.568;13.402;2022-09-09T01:12:23;15.70;99.90
782;DHT22;374;52.568;13.402;2022-09-09T01:14:58;16.10;99.90
782;DHT22;374;52.568;13.402;2022-09-09T01:17:35;15.70;99.90
782;DHT22;374;52.568;13.402;2022-09-09T01:22:48;16.10;99.90
782;DHT22;374;52.568;13.402;2022-09-09T01:28:07;16.10;99.90
782;DHT22;374;52.568;13.402;2022-09-09T01:30:37;15.80;99.90
782;DHT22;374;52.568;13.402;2022-09-09T01:33:03;15.70;99.90
782;DHT22;374;52.568;13.402;2022-09-09T01:35:50;15.60;99.90
782;DHT22;374;52.568;13.402;2022-09-09T01:38:19;15.90;99.90
782;DHT22;374;52.568;13.402;2022-09-09T01:40:45;15.80;99.90
782;DHT22;374;52.568;13.402;2022-09-09T01:43:11;15.90;99.90
782;DHT22;374;52.568;13.402;2022-09-09T01:45:37;15.60;99.90
782;DHT22;374;52.568;13.402;2022-09-09T01:48:04;16.00;99.90
782;DHT22;374;52.568;13.402;2022-09-09T01:50:30;15.70;99.90
782;DHT22;374;52.568;13.402;2022-09-09T01:52:59;15.90;99.90
782;DHT22;374;52.568;13.402;2022-09-09T01:55:31;15.60;99.90
782;DHT22;374;52.568;13.402;2022-09-09T02:03:57;15.60;99.90
782;DHT22;374;52.568;13.402;2022-09-09T02:06:32;15.70;99.90
782;DHT22;374;52.568;13.402;2022-09-09T02:09:01;15.60;99.90
782;DHT22;374;52.568;13.402;2022-09-09T02:11:28;15.90;99.90
782;DHT22;374;52.568;13.402;2022-09-09T02:14:01;15.80;99.90
782;DHT22;374;52.568;13.402;2022-09-09T02:16:43;15.70;99.90
782;DHT22;374;52.568;13.402;2022-09-09T02:19:45;15.50;99.90
782;DHT22;374;52.568;13.402;2022-09-09T02:22:16;15.50;99.90
782;DHT22;374;52.568;13.402;2022-09-09T02:24:42;15.80;99.90
782;DHT22;374;52.568;13.402;2022-09-09T02:27:10;15.40;99.90
782;DHT22;374;52.568;13.402;2022-09-09T02:29:41;15.50;99.90
782;DHT22;374;52.568;13.402;2022-09-09T02:32:12;15.40;99.90
782;DHT22;374;52.568;13.402;2022-09-09T02:34:43;15.70;99.90
782;DHT22;374;52.568;13.402;2022-09-09T02:37:10;15.40;99.90
782;DHT22;374;52.568;13.402;2022-09-09T02:39:36;15.70;99.90
782;DHT22;374;52.568;13.402;2022-09-09T02:42:04;15.30;99.90
782;DHT22;374;52.568;13.402;2022-09-09T02:44:29;15.50;99.90
782;DHT22;374;52.568;13.402;2022-09-09T02:49:56;15.60;99.90
782;DHT22;374;52.568;13.402;2022-09-09T02:53:05;15.40;99.90
782;DHT22;374;52.568;13.402;2022-09-09T02:55:52;15.30;99.90
782;DHT22;374;52.568;13.402;2022-09-09T02:58:20;15.30;99.90
782;DHT22;374;52.568;13.402;2022-09-09T03:00:48;15.40;99.90
782;DHT22;374;52.568;13.402;2022-09-09T03:03:15;15.50;99.90
782;DHT22;374;52.568;13.402;2022-09-09T03:05:42;15.40;99.90
782;DHT22;374;52.568;13.402;2022-09-09T03:08:08;15.40;99.90
782;DHT22;374;52.568;13.402;2022-09-09T03:10:35;15.50;99.90
782;DHT22;374;52.568;13.402;2022-09-09T03:13:01;15.50;99.90
782;DHT22;374;52.568;13.402;2022-09-09T03:15:26;15.50;99.90
782;DHT22;374;52.568;13.402;2022-09-09T03:17:57;15.40;99.90
782;DHT22;374;52.568;13.402;2022-09-09T03:20:27;15.30;99.90
782;DHT22;374;52.568;13.402;2022-09-09T03:22:53;15.10;99.90
782;DHT22;374;52.568;13.402;2022-09-09T03:25:19;15.50;99.90
782;DHT22;374;52.568;13.402;2022-09-09T03:27:45;15.50;99.90
782;DHT22;374;52.568;13.402;2022-09-09T03:30:11;15.40;99.90
782;DHT22;374;52.568;13.402;2022-09-09T03:32:37;15.10;99.90
782;DHT22;374;52.568;13.402;2022-09-09T03:35:03;15.40;99.90
782;DHT22;374;52.568;13.402;2022-09-09T03:37:28;15.10;99.90
782;DHT22;374;52.568;13.402;2022-09-09T03:39:54;15.20;99.90
782;DHT22;374;52.568;13.402;2022-09-09T03:42:20;15.10;99.90
782;DHT22;374;52.568;13.402;2022-09-09T03:44:46;15.10;99.90
782;DHT22;374;52.568;13.402;2022-09-09T03:47:19;15.20;99.90
782;DHT22;374;52.568;13.402;2022-09-09T03:49:45;15.10;99.90
782;DHT22;374;52.568;13.402;2022-09-09T03:52:11;15.30;99.90
782;DHT22;374;52.568;13.402;2022-09-09T03:54:36;15.30;99.90
782;DHT22;374;52.568;13.402;2022-09-09T03:57:03;15.30;99.90
782;DHT22;374;52.568;13.402;2022-09-09T03:59:28;15.30;99.90
782;DHT22;374;52.568;13.402;2022-09-09T04:01:54;15.00;99.90
782;DHT22;374;52.568;13.402;2022-09-09T04:04:20;15.00;99.90
782;DHT22;374;52.568;13.402;2022-09-09T04:06:46;15.00;99.90
782;DHT22;374;52.568;13.402;2022-09-09T04:09:14;15.10;99.90
782;DHT22;374;52.568;13.402;2022-09-09T04:11:39;15.00;99.90
782;DHT22;374;52.568;13.402;2022-09-09T04:14:04;15.10;99.90
782;DHT22;374;52.568;13.402;2022-09-09T04:16:32;15.10;99.90
782;DHT22;374;52.568;13.402;2022-09-09T04:18:58;14.90;99.90
782;DHT22;374;52.568;13.402;2022-09-09T04:21:25;15.20;99.90
782;DHT22;374;52.568;13.402;2022-09-09T04:23:50;15.20;99.90
782;DHT22;374;52.568;13.402;2022-09-09T04:26:16;15.20;99.90
782;DHT22;374;52.568;13.402;2022-09-09T04:28:42;15.10;99.90
782;DHT22;374;52.568;13.402;2022-09-09T04:31:19;15.00;99.90
782;DHT22;374;52.568;13.402;2022-09-09T04:33:46;14.90;99.90
782;DHT22;374;52.568;13.402;2022-09-09T04:36:12;15.00;99.90
782;DHT22;374;52.568;13.402;2022-09-09T04:38:38;15.00;99.90
782;DHT22;374;52.568;13.402;2022-09-09T04:41:04;15.00;99.90
782;DHT22;374;52.568;13.402;2022-09-09T04:43:29;14.80;99.90
782;DHT22;374;52.568;13.402;2022-09-09T04:45:56;14.80;99.90
782;DHT22;374;52.568;13.402;2022-09-09T04:48:21;14.90;99.90
782;DHT22;374;52.568;13.402;2022-09-09T04:51:08;15.00;99.90
782;DHT22;374;52.568;13.402;2022-09-09T04:53:34;15.10;99.90
782;DHT22;374;52.568;13.402;2022-09-09T04:56:04;14.90;99.90
782;DHT22;374;52.568;13.402;2022-09-09T04:58:30;15.00;99.90
782;DHT22;374;52.568;13.402;2022-09-09T05:01:03;15.00;99.90
782;DHT22;374;52.568;13.402;2022-09-09T05:03:29;14.90;99.90
782;DHT22;374;52.568;13.402;2022-09-09T05:05:54;15.00;99.90
782;DHT22;374;52.568;13.402;2022-09-09T05:08:22;15.00;99.90
782;DHT22;374;52.568;13.402;2022-09-09T05:10:48;15.00;99.90
782;DHT22;374;52.568;13.402;2022-09-09T05:13:13;15.10;99.90
782;DHT22;374;52.568;13.402;2022-09-09T05:15:39;14.90;99.90
782;DHT22;374;52.568;13.402;2022-09-09T05:18:04;15.10;99.90
782;DHT22;374;52.568;13.402;2022-09-09T05:20:30;15.10;99.90
782;DHT22;374;52.568;13.402;2022-09-09T05:22:56;15.10;99.90
782;DHT22;374;52.568;13.402;2022-09-09T05:25:23;15.20;99.90
782;DHT22;374;52.568;13.402;2022-09-09T05:27:51;15.00;99.90
782;DHT22;374;52.568;13.402;2022-09-09T05:30:18;15.10;99.90
782;DHT22;374;52.568;13.402;2022-09-09T05:32:44;15.20;99.90
782;DHT22;374;52.568;13.402;2022-09-09T05:35:10;15.20;99.90
782;DHT22;374;52.568;13.402;2022-09-09T05:37:35;15.00;99.90
782;DHT22;374;52.568;13.402;2022-09-09T05:40:01;15.20;99.90
782;DHT22;374;52.568;13.402;2022-09-09T05:42:30;15.20;99.90
782;DHT22;374;52.568;13.402;2022-09-09T05:44:56;15.20;99.90
782;DHT22;374;52.568;13.402;2022-09-09T05:47:21;15.20;99.90
782;DHT22;374;52.568;13.402;2022-09-09T05:49:47;15.10;99.90
782;DHT22;374;52.568;13.402;2022-09-09T05:52:12;15.10;99.90
782;DHT22;374;52.568;13.402;2022-09-09T05:54:38;15.30;99.90
782;DHT22;374;52.568;13.402;2022-09-09T05:57:04;15.10;99.90
782;DHT22;374;52.568;13.402;2022-09-09T05:59:30;15.10;99.90
782;DHT22;374;52.568;13.402;2022-09-09T06:01:55;15.10;99.90
782;DHT22;374;52.568;13.402;2022-09-09T06:04:21;15.10;99.90
782;DHT22;374;52.568;13.402;2022-09-09T06:06:47;15.10;99.90
782;DHT22;374;52.568;13.402;2022-09-09T06:09:13;15.10;99.90
782;DHT22;374;52.568;13.402;2022-09-09T06:11:40;15.30;99.90
782;DHT22;374;52.568;13.402;2022-09-09T06:14:06;15.20;99.90
782;DHT22;374;52.568;13.402;2022-09-09T06:16:33;15.30;99.90
782;DHT22;374;52.568;13.402;2022-09-09T06:18:59;15.20;99.90
782;DHT22;374;52.568;13.402;2022-09-09T06:21:30;15.30;99.90
782;DHT22;374;52.568;13.402;2022-09-09T06:23:59;15.40;99.90
782;DHT22;374;52.568;13.402;2022-09-09T06:26:26;15.40;99.90
782;DHT22;374;52.568;13.402;2022-09-09T06:28:54;15.40;99.90
782;DHT22;374;52.568;13.402;2022-09-09T06:31:21;15.40;99.90
782;DHT22;374;52.568;13.402;2022-09-09T06:33:48;15.30;99.90
782;DHT22;374;52.568;13.402;2022-09-09T06:36:16;15.40;99.90
782;DHT22;374;52.568;13.402;2022-09-09T06:38:43;15.30;99.90
782;DHT22;374;52.568;13.402;2022-09-09T06:41:09;15.50;99.90
782;DHT22;374;52.568;13.402;2022-09-09T06:43:35;15.50;99.90
782;DHT22;374;52.568;13.402;2022-09-09T06:46:05;15.30;99.90
782;DHT22;374;52.568;13.402;2022-09-09T06:48:31;15.40;99.90
782;DHT22;374;52.568;13.402;2022-09-09T06:51:12;15.60;99.90
782;DHT22;374;52.568;13.402;2022-09-09T06:53:39;15.50;99.90
782;DHT22;374;52.568;13.402;2022-09-09T06:58:40;15.60;99.90
782;DHT22;374;52.568;13.402;2022-09-09T07:01:09;15.70;99.90
782;DHT22;374;52.568;13.402;2022-09-09T07:03:35;15.70;99.90
782;DHT22;374;52.568;13.402;2022-09-09T07:06:00;15.80;99.90
782;DHT22;374;52.568;13.402;2022-09-09T07:08:26;15.80;99.90
782;DHT22;374;52.568;13.402;2022-09-09T07:10:52;15.90;99.90
782;DHT22;374;52.568;13.402;2022-09-09T07:13:25;16.00;99.90
782;DHT22;374;52.568;13.402;2022-09-09T07:15:51;15.90;99.90
782;DHT22;374;52.568;13.402;2022-09-09T07:18:17;16.00;99.90
782;DHT22;374;52.568;13.402;2022-09-09T07:20:43;15.90;99.90
782;DHT22;374;52.568;13.402;2022-09-09T07:23:17;16.00;99.90
782;DHT22;374;52.568;13.402;2022-09-09T07:25:46;16.10;99.90
782;DHT22;374;52.568;13.402;2022-09-09T07:28:13;16.10;99.90
782;DHT22;374;52.568;13.402;2022-09-09T07:30:38;16.20;99.90
782;DHT22;374;52.568;13.402;2022-09-09T07:33:05;16.10;99.90
782;DHT22;374;52.568;13.402;2022-09-09T07:35:31;16.20;99.90
782;DHT22;374;52.568;13.402;2022-09-09T07:37:56;16.20;99.90
782;DHT22;374;52.568;13.402;2022-09-09T07:40:23;16.40;99.90
782;DHT22;374;52.568;13.402;2022-09-09T07:42:49;16.30;99.90
782;DHT22;374;52.568;13.402;2022-09-09T07:45:15;16.50;99.90
782;DHT22;374;52.568;13.402;2022-09-09T07:47:40;16.60;99.90
782;DHT22;374;52.568;13.402;2022-09-09T07:50:08;16.80;99.90
782;DHT22;374;52.568;13.402;2022-09-09T07:52:35;16.90;99.90
782;DHT22;374;52.568;13.402;2022-09-09T07:55:00;17.10;99.90
782;DHT22;374;52.568;13.402;2022-09-09T07:57:28;17.40;99.90
782;DHT22;374;52.568;13.402;2022-09-09T07:59:56;17.50;99.90
782;DHT22;374;52.568;13.402;2022-09-09T08:02:22;17.80;99.90
782;DHT22;374;52.568;13.402;2022-09-09T08:04:48;17.90;99.90
782;DHT22;374;52.568;13.402;2022-09-09T08:07:14;18.10;99.90
782;DHT22;374;52.568;13.402;2022-09-09T08:09:39;18.20;99.90
782;DHT22;374;52.568;13.402;2022-09-09T08:12:05;18.40;99.90
782;DHT22;374;52.568;13.402;2022-09-09T08:14:34;18.50;99.90
782;DHT22;374;52.568;13.402;2022-09-09T08:16:59;18.70;99.90
782;DHT22;374;52.568;13.402;2022-09-09T08:19:25;18.80;99.90
782;DHT22;374;52.568;13.402;2022-09-09T08:21:51;18.90;99.90
782;DHT22;374;52.568;13.402;2022-09-09T08:24:17;19.10;99.90
782;DHT22;374;52.568;13.402;2022-09-09T08:26:46;19.10;99.90
782;DHT22;374;52.568;13.402;2022-09-09T08:29:14;19.20;99.90
782;DHT22;374;52.568;13.402;2022-09-09T08:31:42;19.30;99.90
782;DHT22;374;52.568;13.402;2022-09-09T08:34:09;19.40;99.90
782;DHT22;374;52.568;13.402;2022-09-09T08:36:39;19.60;99.90
782;DHT22;374;52.568;13.402;2022-09-09T08:39:06;19.50;99.90
782;DHT22;374;52.568;13.402;2022-09-09T08:41:43;19.50;99.90
782;DHT22;374;52.568;13.402;2022-09-09T08:45:09;19.50;99.90
782;DHT22;374;52.568;13.402;2022-09-09T08:47:29;19.50;99.90
782;DHT22;374;52.568;13.402;2022-09-09T08:53:05;19.80;99.90
782;DHT22;374;52.568;13.402;2022-09-09T08:55:45;19.90;99.90
782;DHT22;374;52.568;13.402;2022-09-09T08:58:15;19.90;99.90
782;DHT22;374;52.568;13.402;2022-09-09T09:03:35;19.80;99.90
782;DHT22;374;52.568;13.402;2022-09-09T09:08:58;19.70;99.90
782;DHT22;374;52.568;13.402;2022-09-09T09:11:25;19.60;99.90
782;DHT22;374;52.568;13.402;2022-09-09T09:14:19;19.60;99.90
782;DHT22;374;52.568;13.402;2022-09-09T09:16:59;19.50;99.90
782;DHT22;374;52.568;13.402;2022-09-09T09:19:26;19.40;99.90
782;DHT22;374;52.568;13.402;2022-09-09T09:24:59;19.60;99.90
782;DHT22;374;52.568;13.402;2022-09-09T09:27:40;19.80;99.90
782;DHT22;374;52.568;13.402;2022-09-09T09:30:21;20.30;99.90
782;DHT22;374;52.568;13.402;2022-09-09T09:33:02;20.90;99.90
782;DHT22;374;52.568;13.402;2022-09-09T09:35:30;21.50;99.90
782;DHT22;374;52.568;13.402;2022-09-09T09:37:55;22.10;99.90
782;DHT22;374;52.568;13.402;2022-09-09T09:40:22;22.80;99.90
782;DHT22;374;52.568;13.402;2022-09-09T09:43:16;23.50;99.90
782;DHT22;374;52.568;13.402;2022-09-09T09:45:44;24.20;99.90
782;DHT22;374;52.568;13.402;2022-09-09T09:48:13;24.40;99.90
782;DHT22;374;52.568;13.402;2022-09-09T09:51:02;24.30;99.90
782;DHT22;374;52.568;13.402;2022-09-09T09:53:34;23.90;99.90
782;DHT22;374;52.568;13.402;2022-09-09T09:56:03;23.40;99.90
782;DHT22;374;52.568;13.402;2022-09-09T09:58:32;22.90;99.90
782;DHT22;374;52.568;13.402;2022-09-09T10:00:59;22.60;99.90
782;DHT22;374;52.568;13.402;2022-09-09T10:03:32;22.10;99.90
782;DHT22;374;52.568;13.402;2022-09-09T10:06:03;21.90;99.90
782;DHT22;374;52.568;13.402;2022-09-09T10:08:28;21.60;99.90
782;DHT22;374;52.568;13.402;2022-09-09T10:11:07;21.40;99.90
782;DHT22;374;52.568;13.402;2022-09-09T10:16:34;21.00;99.90
782;DHT22;374;52.568;13.402;2022-09-09T10:19:18;20.80;99.90
782;DHT22;374;52.568;13.402;2022-09-09T10:22:08;20.70;99.90
782;DHT22;374;52.568;13.402;2022-09-09T10:30:48;20.50;99.90
782;DHT22;374;52.568;13.402;2022-09-09T10:33:50;20.50;99.90
782;DHT22;374;52.568;13.402;2022-09-09T10:36:25;20.50;99.90
782;DHT22;374;52.568;13.402;2022-09-09T10:42:06;20.40;99.90
782;DHT22;374;52.568;13.402;2022-09-09T10:45:02;20.40;99.90
782;DHT22;374;52.568;13.402;2022-09-09T10:50:55;20.30;99.90
782;DHT22;374;52.568;13.402;2022-09-09T10:56:21;20.30;99.90
782;DHT22;374;52.568;13.402;2022-09-09T10:58:54;20.30;99.90
782;DHT22;374;52.568;13.402;2022-09-09T11:01:22;20.30;99.90
782;DHT22;374;52.568;13.402;2022-09-09T11:06:53;20.30;99.90
782;DHT22;374;52.568;13.402;2022-09-09T11:09:24;20.30;99.90
782;DHT22;374;52.568;13.402;2022-09-09T11:11:55;20.30;99.90
782;DHT22;374;52.568;13.402;2022-09-09T11:14:38;20.30;99.90
782;DHT22;374;52.568;13.402;2022-09-09T11:17:22;20.20;99.90
782;DHT22;374;52.568;13.402;2022-09-09T11:19:48;20.20;99.90
782;DHT22;374;52.568;13.402;2022-09-09T11:22:51;20.10;99.90
782;DHT22;374;52.568;13.402;2022-09-09T11:25:35;20.10;99.90
782;DHT22;374;52.568;13.402;2022-09-09T11:28:25;20.10;99.90
782;DHT22;374;52.568;13.402;2022-09-09T11:36:38;20.10;99.90
782;DHT22;374;52.568;13.402;2022-09-09T11:41:41;20.10;99.90
782;DHT22;374;52.568;13.402;2022-09-09T11:44:12;20.10;99.90
782;DHT22;374;52.568;13.402;2022-09-09T11:46:39;20.10;99.90
782;DHT22;374;52.568;13.402;2022-09-09T11:49:06;20.10;99.90
782;DHT22;374;52.568;13.402;2022-09-09T11:51:33;20.10;99.90
782;DHT22;374;52.568;13.402;2022-09-09T11:54:01;20.10;99.90
782;DHT22;374;52.568;13.402;2022-09-09T11:56:34;20.10;99.90
782;DHT22;374;52.568;13.402;2022-09-09T11:59:20;20.10;99.90
782;DHT22;374;52.568;13.402;2022-09-09T12:01:53;20.10;99.90
782;DHT22;374;52.568;13.402;2022-09-09T12:06:59;20.20;99.90
782;DHT22;374;52.568;13.402;2022-09-09T12:15:02;20.20;99.90
782;DHT22;374;52.568;13.402;2022-09-09T12:17:30;20.20;99.90
782;DHT22;374;52.568;13.402;2022-09-09T12:30:51;20.20;99.90
782;DHT22;374;52.568;13.402;2022-09-09T12:33:19;20.20;99.90
782;DHT22;374;52.568;13.402;2022-09-09T12:35:50;20.20;99.90
782;DHT22;374;52.568;13.402;2022-09-09T12:38:26;20.20;99.90
782;DHT22;374;52.568;13.402;2022-09-09T12:40:56;20.20;99.90
782;DHT22;374;52.568;13.402;2022-09-09T12:43:24;20.10;99.90
782;DHT22;374;52.568;13.402;2022-09-09T12:45:57;20.20;99.90
782;DHT22;374;52.568;13.402;2022-09-09T12:48:31;20.20;99.90
782;DHT22;374;52.568;13.402;2022-09-09T12:50:58;20.20;99.90
782;DHT22;374;52.568;13.402;2022-09-09T12:53:29;20.20;99.90
782;DHT22;374;52.568;13.402;2022-09-09T12:58:26;20.20;99.90
782;DHT22;374;52.568;13.402;2022-09-09T13:00:55;20.20;99.90
782;DHT22;374;52.568;13.402;2022-09-09T13:03:22;20.30;99.90
782;DHT22;374;52.568;13.402;2022-09-09T13:05:48;20.30;99.90
782;DHT22;374;52.568;13.402;2022-09-09T13:08:16;20.30;99.90
782;DHT22;374;52.568;13.402;2022-09-09T13:10:54;20.30;99.90
782;DHT22;374;52.568;13.402;2022-09-09T13:13:25;20.30;99.90
782;DHT22;374;52.568;13.402;2022-09-09T13:15:54;20.40;99.90
782;DHT22;374;52.568;13.402;2022-09-09T13:18:23;20.40;99.90
782;DHT22;374;52.568;13.402;2022-09-09T13:20:49;20.40;99.90
782;DHT22;374;52.568;13.402;2022-09-09T13:23:16;20.40;99.90
782;DHT22;374;52.568;13.402;2022-09-09T13:25:56;20.40;99.90
782;DHT22;374;52.568;13.402;2022-09-09T13:28:25;20.50;99.90
782;DHT22;374;52.568;13.402;2022-09-09T13:30:57;20.50;99.90
782;DHT22;374;52.568;13.402;2022-09-09T13:33:30;20.50;99.90
782;DHT22;374;52.568;13.402;2022-09-09T13:35:57;20.50;99.90
782;DHT22;374;52.568;13.402;2022-09-09T13:38:24;20.50;99.90
782;DHT22;374;52.568;13.402;2022-09-09T13:41:08;20.50;99.90
782;DHT22;374;52.568;13.402;2022-09-09T13:43:37;20.50;99.90
782;DHT22;374;52.568;13.402;2022-09-09T13:49:00;20.50;99.90
782;DHT22;374;52.568;13.402;2022-09-09T13:54:06;20.50;99.90
782;DHT22;374;52.568;13.402;2022-09-09T13:56:36;20.50;99.90
782;DHT22;374;52.568;13.402;2022-09-09T13:59:04;20.50;99.90
782;DHT22;374;52.568;13.402;2022-09-09T14:01:30;20.50;99.90
782;DHT22;374;52.568;13.402;2022-09-09T14:03:56;20.60;99.90
782;DHT22;374;52.568;13.402;2022-09-09T14:06:22;20.60;99.90
782;DHT22;374;52.568;13.402;2022-09-09T14:08:49;20.60;99.90
782;DHT22;374;52.568;13.402;2022-09-09T14:11:16;20.70;99.90
782;DHT22;374;52.568;13.402;2022-09-09T14:13:41;20.70;99.90
782;DHT22;374;52.568;13.402;2022-09-09T14:16:07;20.70;99.90
782;DHT22;374;52.568;13.402;2022-09-09T14:18:32;20.70;99.90
782;DHT22;374;52.568;13.402;2022-09-09T14:20:59;20.70;99.90
782;DHT22;374;52.568;13.402;2022-09-09T14:23:24;20.70;99.90
782;DHT22;374;52.568;13.402;2022-09-09T14:25:51;20.70;99.90
782;DHT22;374;52.568;13.402;2022-09-09T14:28:17;20.70;99.90
782;DHT22;374;52.568;13.402;2022-09-09T14:30:43;20.70;99.90
782;DHT22;374;52.568;13.402;2022-09-09T14:33:14;20.70;99.90
782;DHT22;374;52.568;13.402;2022-09-09T14:35:40;20.70;99.90
782;DHT22;374;52.568;13.402;2022-09-09T14:38:07;20.70;99.90
782;DHT22;374;52.568;13.402;2022-09-09T14:40:35;20.70;99.90
782;DHT22;374;52.568;13.402;2022-09-09T14:43:00;20.70;99.90
782;DHT22;374;52.568;13.402;2022-09-09T14:45:27;20.70;99.90
782;DHT22;374;52.568;13.402;2022-09-09T14:47:53;20.70;99.90
782;DHT22;374;52.568;13.402;2022-09-09T14:50:19;20.70;99.90
782;DHT22;374;52.568;13.402;2022-09-09T14:52:45;20.70;99.90
782;DHT22;374;52.568;13.402;2022-09-09T14:55:11;20.70;99.90
782;DHT22;374;52.568;13.402;2022-09-09T14:57:36;20.70;99.90
782;DHT22;374;52.568;13.402;2022-09-09T15:00:06;20.70;99.90
782;DHT22;374;52.568;13.402;2022-09-09T15:02:32;20.70;99.90
782;DHT22;374;52.568;13.402;2022-09-09T15:04:58;20.60;99.90
782;DHT22;374;52.568;13.402;2022-09-09T15:07:24;20.60;99.90
782;DHT22;374;52.568;13.402;2022-09-09T15:09:50;20.60;99.90
782;DHT22;374;52.568;13.402;2022-09-09T15:12:16;20.60;99.90
782;DHT22;374;52.568;13.402;2022-09-09T15:14:44;20.60;99.90
782;DHT22;374;52.568;13.402;2022-09-09T15:17:09;20.60;99.90
782;DHT22;374;52.568;13.402;2022-09-09T15:19:35;20.60;99.90
782;DHT22;374;52.568;13.402;2022-09-09T15:22:02;20.60;99.90
782;DHT22;374;52.568;13.402;2022-09-09T15:24:27;20.60;99.90
782;DHT22;374;52.568;13.402;2022-09-09T15:26:53;20.60;99.90
782;DHT22;374;52.568;13.402;2022-09-09T15:29:19;20.60;99.90
782;DHT22;374;52.568;13.402;2022-09-09T15:31:44;20.70;99.90
782;DHT22;374;52.568;13.402;2022-09-09T15:34:10;20.70;99.90
782;DHT22;374;52.568;13.402;2022-09-09T15:36:42;20.70;99.90
782;DHT22;374;52.568;13.402;2022-09-09T15:39:12;20.70;99.90
782;DHT22;374;52.568;13.402;2022-09-09T15:41:38;20.70;99.90
782;DHT22;374;52.568;13.402;2022-09-09T15:44:04;20.70;99.90
782;DHT22;374;52.568;13.402;2022-09-09T15:46:38;20.70;99.90
782;DHT22;374;52.568;13.402;2022-09-09T15:49:10;20.60;99.90
782;DHT22;374;52.568;13.402;2022-09-09T15:51:40;20.60;99.90
782;DHT22;374;52.568;13.402;2022-09-09T15:54:06;20.60;99.90
782;DHT22;374;52.568;13.402;2022-09-09T15:56:32;20.50;99.90
782;DHT22;374;52.568;13.402;2022-09-09T15:58:59;20.50;99.90
782;DHT22;374;52.568;13.402;2022-09-09T16:01:26;20.50;99.90
782;DHT22;374;52.568;13.402;2022-09-09T16:03:52;20.50;99.90
782;DHT22;374;52.568;13.402;2022-09-09T16:06:20;20.40;99.90
782;DHT22;374;52.568;13.402;2022-09-09T16:08:48;20.40;99.90
782;DHT22;374;52.568;13.402;2022-09-09T16:11:20;20.40;99.90
782;DHT22;374;52.568;13.402;2022-09-09T16:13:48;20.30;99.90
782;DHT22;374;52.568;13.402;2022-09-09T16:16:14;20.30;99.90
782;DHT22;374;52.568;13.402;2022-09-09T16:18:42;20.30;99.90
782;DHT22;374;52.568;13.402;2022-09-09T16:21:20;20.30;99.90
782;DHT22;374;52.568;13.402;2022-09-09T16:23:46;20.30;99.90
782;DHT22;374;52.568;13.402;2022-09-09T16:26:14;20.30;99.90
782;DHT22;374;52.568;13.402;2022-09-09T16:28:40;20.30;99.90
782;DHT22;374;52.568;13.402;2022-09-09T16:31:07;20.30;99.90
782;DHT22;374;52.568;13.402;2022-09-09T16:33:34;20.30;99.90
782;DHT22;374;52.568;13.402;2022-09-09T16:36:05;20.30;99.90
782;DHT22;374;52.568;13.402;2022-09-09T16:38:32;20.30;99.90
782;DHT22;374;52.568;13.402;2022-09-09T16:41:05;20.30;99.90
782;DHT22;374;52.568;13.402;2022-09-09T16:43:32;20.30;99.90
782;DHT22;374;52.568;13.402;2022-09-09T16:45:58;20.30;99.90
782;DHT22;374;52.568;13.402;2022-09-09T16:48:26;20.30;99.90
782;DHT22;374;52.568;13.402;2022-09-09T16:50:52;20.20;99.90
782;DHT22;374;52.568;13.402;2022-09-09T16:53:18;20.30;99.90
782;DHT22;374;52.568;13.402;2022-09-09T16:55:43;20.20;99.90
782;DHT22;374;52.568;13.402;2022-09-09T16:58:10;20.20;99.90
782;DHT22;374;52.568;13.402;2022-09-09T17:00:36;20.20;99.90
782;DHT22;374;52.568;13.402;2022-09-09T17:03:02;20.20;99.90
782;DHT22;374;52.568;13.402;2022-09-09T17:05:28;20.20;99.90
782;DHT22;374;52.568;13.402;2022-09-09T17:07:54;20.20;99.90
782;DHT22;374;52.568;13.402;2022-09-09T17:10:23;20.10;99.90
782;DHT22;374;52.568;13.402;2022-09-09T17:12:48;20.10;99.90
782;DHT22;374;52.568;13.402;2022-09-09T17:15:14;20.10;99.90
782;DHT22;374;52.568;13.402;2022-09-09T17:17:40;20.10;99.90
782;DHT22;374;52.568;13.402;2022-09-09T17:20:09;20.10;99.90
782;DHT22;374;52.568;13.402;2022-09-09T17:22:34;20.10;99.90
782;DHT22;374;52.568;13.402;2022-09-09T17:25:00;20.10;99.90
782;DHT22;374;52.568;13.402;2022-09-09T17:27:25;20.00;99.90
782;DHT22;374;52.568;13.402;2022-09-09T17:29:51;20.00;99.90
782;DHT22;374;52.568;13.402;2022-09-09T17:32:17;20.00;99.90
782;DHT22;374;52.568;13.402;2022-09-09T17:34:43;20.00;99.90
782;DHT22;374;52.568;13.402;2022-09-09T17:37:09;20.00;99.90
782;DHT22;374;52.568;13.402;2022-09-09T17:39:34;19.90;99.90
782;DHT22;374;52.568;13.402;2022-09-09T17:42:00;19.90;99.90
782;DHT22;374;52.568;13.402;2022-09-09T17:44:26;19.90;99.90
782;DHT22;374;52.568;13.402;2022-09-09T17:46:51;19.80;99.90
782;DHT22;374;52.568;13.402;2022-09-09T17:49:17;19.80;99.90
782;DHT22;374;52.568;13.402;2022-09-09T17:51:43;19.70;99.90
782;DHT22;374;52.568;13.402;2022-09-09T17:54:16;19.70;99.90
782;DHT22;374;52.568;13.402;2022-09-09T17:56:43;19.70;99.90
782;DHT22;374;52.568;13.402;2022-09-09T17:59:11;19.60;99.90
782;DHT22;374;52.568;13.402;2022-09-09T18:01:40;19.60;99.90
782;DHT22;374;52.568;13.402;2022-09-09T18:04:08;19.50;99.90
782;DHT22;374;52.568;13.402;2022-09-09T18:06:36;19.40;99.90
782;DHT22;374;52.568;13.402;2022-09-09T18:09:08;19.40;99.90
782;DHT22;374;52.568;13.402;2022-09-09T18:11:37;19.40;99.90
782;DHT22;374;52.568;13.402;2022-09-09T18:14:07;19.30;99.90
782;DHT22;374;52.568;13.402;2022-09-09T18:16:35;19.30;99.90
782;DHT22;374;52.568;13.402;2022-09-09T18:19:03;19.30;99.90
782;DHT22;374;52.568;13.402;2022-09-09T18:21:30;19.20;99.90
782;DHT22;374;52.568;13.402;2022-09-09T18:24:03;19.20;99.90